Time;durP1;ratioP1;P1;durP2;ratioP2;P2;SDS_P1;SDS_P2;PMS_P1;PMS_P2;Temp;Humidity;BMP_temperature;BMP_pressure;BME280_temperature;BME280_humidity;BME280_pressure;Samples;Min_cycle;Max_cycle;Signal;HPM_P1;HPM_P2
2022/05/17 00:00:10;;;;;;;;;7.00;6.00;;;;;22.88;35.58;101242.61;110525;1258;18740;-46
2022/05/17 00:02:58;;;;;;;;;5.67;5.00;;;;;22.88;35.69;101244.12;110571;1258;19684;-46
2022/05/17 00:05:27;;;;;;;;;6.33;6.00;;;;;22.87;35.61;101241.09;110555;1259;18599;-46
2022/05/17 00:07:54;;;;;;;;;7.00;7.00;;;;;22.88;35.66;101243.95;110491;1259;22913;-47
2022/05/17 00:10:22;;;;;;;;;7.00;6.00;;;;;22.88;35.56;101247.73;110605;1259;19997;-48
2022/05/17 00:12:49;;;;;;;;;7.00;7.00;;;;;22.88;35.62;101247.20;110499;1259;21785;-48
2022/05/17 00:15:16;;;;;;;;;7.00;7.00;;;;;22.87;35.57;101247.61;110437;1258;18869;-48
2022/05/17 00:17:43;;;;;;;;;7.00;6.00;;;;;22.87;35.53;101248.92;110515;1259;19630;-48
2022/05/17 00:20:10;;;;;;;;;6.00;6.00;;;;;22.87;35.68;101249.14;110505;1259;18548;-48
2022/05/17 00:22:38;;;;;;;;;7.00;6.67;;;;;22.87;35.50;101246.39;110555;1259;18755;-49
2022/05/17 00:25:05;;;;;;;;;7.00;7.00;;;;;22.88;35.57;101243.76;110598;1258;19448;-48
2022/05/17 00:27:33;;;;;;;;;6.00;6.00;;;;;22.88;35.60;101246.48;110524;1258;18368;-48
2022/05/17 00:30:00;;;;;;;;;7.00;6.00;;;;;22.87;35.57;101251.10;110528;1259;19396;-47
2022/05/17 00:32:28;;;;;;;;;7.67;7.00;;;;;22.88;35.67;101249.60;110509;1259;19716;-47
2022/05/17 00:34:55;;;;;;;;;9.00;7.00;;;;;22.87;35.61;101247.45;110494;1259;18480;-48
2022/05/17 00:37:23;;;;;;;;;8.33;8.33;;;;;22.87;35.57;101248.39;110576;1258;18755;-48
2022/05/17 00:39:50;;;;;;;;;6.33;6.00;;;;;22.87;35.55;101249.11;110528;1258;19750;-48
2022/05/17 00:42:17;;;;;;;;;7.00;6.00;;;;;22.87;35.55;101247.33;110551;1259;22665;-48
2022/05/17 00:44:45;;;;;;;;;7.00;6.33;;;;;22.86;35.65;101248.45;110470;1259;18808;-46
2022/05/17 00:47:12;;;;;;;;;8.00;7.00;;;;;22.86;35.54;101246.81;110456;1261;19904;-48
2022/05/17 00:49:39;;;;;;;;;9.00;7.00;;;;;22.87;35.49;101251.54;110497;1260;18471;-49
2022/05/17 00:52:06;;;;;;;;;9.33;9.00;;;;;22.86;35.65;101249.04;110513;1261;18681;-48
2022/05/17 00:54:33;;;;;;;;;7.00;7.00;;;;;22.87;35.58;101249.90;110500;1261;19449;-45
2022/05/17 00:57:01;;;;;;;;;6.00;6.00;;;;;22.87;35.57;101251.91;110478;1261;18528;-48
2022/05/17 00:59:29;;;;;;;;;7.00;6.00;;;;;22.87;35.52;101248.59;110487;1261;20004;-48
2022/05/17 01:01:56;;;;;;;;;9.00;9.00;;;;;22.86;35.50;101246.27;110523;1260;19537;-48
2022/05/17 01:04:24;;;;;;;;;6.50;6.50;;;;;22.86;35.43;101240.29;110529;1261;18526;-49
2022/05/17 01:06:51;;;;;;;;;7.00;6.00;;;;;22.86;35.54;101245.07;110475;1260;20387;-47
2022/05/17 01:09:18;;;;;;;;;7.00;7.00;;;;;22.87;35.51;101253.19;110509;1261;19666;-48
2022/05/17 01:11:45;;;;;;;;;9.00;7.00;;;;;22.87;35.38;101250.05;110491;1261;18565;-46
2022/05/17 01:16:58;;;;;;;;;8.33;5.67;;;;;22.88;35.31;101256.19;110294;1261;20209;-48
2022/05/17 01:19:25;;;;;;;;;7.00;6.00;;;;;22.89;35.49;101257.62;110531;1258;18892;-47
2022/05/17 01:21:52;;;;;;;;;8.67;6.67;;;;;22.90;35.63;101263.66;110400;1258;18787;-49
2022/05/17 01:24:20;;;;;;;;;7.67;6.33;;;;;22.91;35.63;101262.13;110424;1259;19426;-48
2022/05/17 01:26:47;;;;;;;;;9.00;7.00;;;;;22.92;35.89;101266.84;110464;1261;19029;-48
2022/05/17 01:29:14;;;;;;;;;7.00;6.00;;;;;22.94;35.77;101271.65;110779;1259;18965;-48
2022/05/17 01:31:42;;;;;;;;;5.00;5.00;;;;;22.94;35.84;101270.53;110551;1259;19913;-47
2022/05/17 01:34:10;;;;;;;;;5.67;5.67;;;;;22.93;35.78;101269.93;110555;1258;20390;-44
2022/05/17 01:36:37;;;;;;;;;6.67;6.00;;;;;22.91;36.04;101272.27;110545;1258;18901;-48
2022/05/17 01:39:05;;;;;;;;;8.33;6.67;;;;;22.91;36.20;101276.41;110528;1259;19461;-47
2022/05/17 01:41:32;;;;;;;;;6.00;6.00;;;;;22.90;36.18;101279.27;110537;1259;20233;-49
2022/05/17 01:43:59;;;;;;;;;7.00;7.00;;;;;22.90;36.07;101278.20;110616;1259;18870;-49
2022/05/17 01:46:26;;;;;;;;;6.67;6.33;;;;;22.89;36.09;101275.20;110566;1259;22008;-48
2022/05/17 01:48:54;;;;;;;;;7.67;6.00;;;;;22.87;36.05;101274.06;110565;1259;18404;-47
2022/05/17 01:51:21;;;;;;;;;7.00;7.00;;;;;22.87;36.03;101273.02;110501;1258;18853;-48
2022/05/17 01:53:48;;;;;;;;;7.67;6.33;;;;;22.87;35.93;101276.42;110439;1261;20857;-47
2022/05/17 01:56:15;;;;;;;;;7.00;7.00;;;;;22.87;35.87;101276.40;110729;1258;18972;-47
2022/05/17 01:58:43;;;;;;;;;9.33;7.67;;;;;22.88;35.92;101275.66;110564;1259;19015;-48
2022/05/17 02:01:10;;;;;;;;;7.00;6.00;;;;;22.87;35.94;101273.73;110549;1259;19626;-47
2022/05/17 02:03:37;;;;;;;;;6.67;6.00;;;;;22.88;36.06;101273.58;110582;1258;18916;-49
2022/05/17 02:06:05;;;;;;;;;6.00;6.00;;;;;22.88;35.95;101275.98;110523;1259;18618;-47
2022/05/17 02:08:32;;;;;;;;;5.00;5.00;;;;;22.88;35.89;101279.45;110732;1259;19528;-47
2022/05/17 02:10:59;;;;;;;;;9.00;6.00;;;;;22.89;35.91;101277.21;110498;1258;22852;-48
2022/05/17 02:13:26;;;;;;;;;6.50;6.00;;;;;22.87;35.98;101281.71;110538;1259;19069;-45
2022/05/17 02:15:54;;;;;;;;;7.00;6.00;;;;;22.88;35.83;101280.20;110577;1259;20337;-46
2022/05/17 02:18:21;;;;;;;;;6.00;6.00;;;;;22.87;35.92;101280.58;110526;1258;18461;-47
2022/05/17 02:20:48;;;;;;;;;6.00;6.00;;;;;22.88;35.84;101278.91;110477;1261;18798;-47
2022/05/17 02:23:16;;;;;;;;;7.00;6.00;;;;;22.88;35.91;101280.01;110533;1259;22366;-48
2022/05/17 02:25:43;;;;;;;;;7.00;7.00;;;;;22.87;35.77;101282.84;110548;1258;18580;-48
2022/05/17 02:28:10;;;;;;;;;5.00;5.00;;;;;22.87;35.87;101281.16;110551;1259;18768;-48
2022/05/17 02:30:37;;;;;;;;;6.00;6.00;;;;;22.87;35.78;101288.47;110561;1259;19739;-47
2022/05/17 02:33:06;;;;;;;;;5.00;5.00;;;;;22.87;35.83;101286.59;110528;1259;23209;-49
2022/05/17 02:35:34;;;;;;;;;7.00;5.67;;;;;22.88;35.77;101294.42;110524;1259;18724;-47
2022/05/17 02:38:01;;;;;;;;;5.00;5.00;;;;;22.88;35.86;101293.46;110619;1259;19820;-47
2022/05/17 02:40:28;;;;;;;;;6.00;6.00;;;;;22.88;35.83;101302.41;110504;1259;22501;-48
2022/05/17 02:42:55;;;;;;;;;6.00;6.00;;;;;22.88;35.72;101304.80;110540;1259;18682;-50
2022/05/17 02:45:23;;;;;;;;;5.67;5.00;;;;;22.86;35.72;101300.38;110569;1259;19614;-48
2022/05/17 02:47:50;;;;;;;;;6.00;6.00;;;;;22.86;35.89;101297.30;110418;1261;18557;-48
2022/05/17 02:50:17;;;;;;;;;7.00;6.67;;;;;22.87;35.82;101301.08;110704;1259;19062;-48
2022/05/17 02:52:45;;;;;;;;;10.00;6.00;;;;;22.87;35.83;101302.65;110564;1259;19395;-47
2022/05/17 02:55:12;;;;;;;;;7.00;5.50;;;;;22.86;35.76;101304.38;110539;1259;18819;-48
2022/05/17 02:57:39;;;;;;;;;8.33;7.00;;;;;22.87;35.72;101306.92;110536;1258;23060;-49
2022/05/17 03:00:07;;;;;;;;;7.00;6.00;;;;;22.87;35.86;101305.63;110510;1259;19621;-47
2022/05/17 03:02:34;;;;;;;;;6.33;6.00;;;;;22.87;35.78;101306.13;110500;1259;18443;-47
2022/05/17 03:05:01;;;;;;;;;7.00;6.33;;;;;22.87;35.89;101305.65;110467;1258;18784;-49
2022/05/17 03:07:28;;;;;;;;;7.00;6.00;;;;;22.86;35.85;101309.31;110560;1258;30381;-47
2022/05/17 03:09:56;;;;;;;;;7.00;6.00;;;;;22.86;35.67;101309.30;110579;1259;18726;-48
2022/05/17 03:12:23;;;;;;;;;8.33;7.00;;;;;22.86;35.89;101309.58;110501;1259;18777;-47
2022/05/17 03:14:50;;;;;;;;;7.00;6.00;;;;;22.86;35.69;101310.95;110466;1259;19636;-48
2022/05/17 03:17:17;;;;;;;;;10.00;9.00;;;;;22.85;35.78;101309.82;110734;1258;22268;-49
2022/05/17 03:19:45;;;;;;;;;5.67;5.67;;;;;22.86;35.73;101313.89;110563;1258;18986;-49
2022/05/17 03:22:12;;;;;;;;;6.00;6.00;;;;;22.86;35.75;101313.95;110536;1258;19489;-48
2022/05/17 03:24:39;;;;;;;;;5.00;5.00;;;;;22.85;35.82;101316.42;110544;1258;18648;-47
2022/05/17 03:27:06;;;;;;;;;5.00;5.00;;;;;22.85;35.81;101322.02;110528;1259;19178;-47
2022/05/17 03:29:34;;;;;;;;;7.00;6.00;;;;;22.86;35.82;101323.07;110511;1259;19932;-48
2022/05/17 03:32:01;;;;;;;;;7.00;6.00;;;;;22.86;35.80;101319.95;110563;1259;19097;-47
2022/05/17 03:34:28;;;;;;;;;7.00;7.00;;;;;22.86;35.66;101317.43;110545;1259;18805;-48
2022/05/17 03:36:55;;;;;;;;;6.00;6.00;;;;;22.85;35.75;101318.36;110534;1259;19590;-48
2022/05/17 03:39:23;;;;;;;;;7.00;7.00;;;;;22.85;35.84;101320.20;110692;1258;18594;-47
2022/05/17 03:41:50;;;;;;;;;5.67;5.00;;;;;22.86;35.73;101320.67;110745;1258;22265;-48
2022/05/17 03:44:18;;;;;;;;;6.67;5.67;;;;;22.86;35.65;101323.58;110579;1259;19453;-47
2022/05/17 03:46:45;;;;;;;;;7.00;6.00;;;;;22.85;35.74;101327.11;110549;1259;20646;-48
2022/05/17 03:49:12;;;;;;;;;7.00;7.00;;;;;22.85;35.53;101325.71;110569;1259;19396;-48
2022/05/17 03:51:39;;;;;;;;;6.00;5.33;;;;;22.86;35.67;101327.38;110540;1259;19582;-47
2022/05/17 03:54:07;;;;;;;;;6.00;6.00;;;;;22.86;35.69;101325.61;110517;1259;18419;-47
2022/05/17 03:56:34;;;;;;;;;5.00;5.00;;;;;22.86;35.62;101328.89;110524;1259;18757;-47
2022/05/17 03:59:01;;;;;;;;;8.00;7.00;;;;;22.86;35.54;101332.10;110559;1259;19624;-45
2022/05/17 04:01:29;;;;;;;;;5.00;5.00;;;;;22.87;35.43;101334.83;110520;1258;18520;-47
2022/05/17 04:03:56;;;;;;;;;6.00;6.00;;;;;22.86;35.48;101338.55;110569;1259;18771;-48
2022/05/17 04:06:25;;;;;;;;;6.50;6.00;;;;;22.87;35.69;101341.19;110517;1259;20921;-50
2022/05/17 04:08:52;;;;;;;;;6.33;6.00;;;;;22.86;35.66;101342.52;110707;1259;18428;-48
2022/05/17 04:11:19;;;;;;;;;6.00;5.67;;;;;22.87;35.54;101340.40;110726;1259;18697;-48
2022/05/17 04:13:46;;;;;;;;;6.00;6.00;;;;;22.89;35.62;101342.71;110564;1258;19668;-48
2022/05/17 04:16:14;;;;;;;;;6.67;6.33;;;;;22.89;35.55;101346.77;110467;1259;18490;-47
2022/05/17 04:18:41;;;;;;;;;6.00;6.00;;;;;22.90;35.63;101340.04;110473;1260;22303;-48
2022/05/17 04:21:08;;;;;;;;;6.00;6.00;;;;;22.93;35.58;101341.02;110487;1259;22200;-48
2022/05/17 04:23:37;;;;;;;;;5.00;5.00;;;;;22.94;35.63;101346.73;110501;1259;18560;-47
2022/05/17 04:26:05;;;;;;;;;6.00;5.50;;;;;22.94;35.71;101347.11;110490;1260;18771;-47
2022/05/17 04:28:32;;;;;;;;;6.00;6.00;;;;;22.95;35.76;101348.46;110467;1261;19680;-48
2022/05/17 04:30:59;;;;;;;;;6.00;5.00;;;;;22.94;35.70;101348.00;110410;1260;18444;-48
2022/05/17 04:33:26;;;;;;;;;5.00;5.00;;;;;22.94;35.66;101352.38;110473;1260;19007;-49
2022/05/17 04:35:54;;;;;;;;;6.00;6.00;;;;;22.94;35.76;101359.66;110483;1259;19473;-48
2022/05/17 04:38:21;;;;;;;;;6.33;6.00;;;;;22.94;35.63;101359.48;110519;1260;18692;-48
2022/05/17 04:40:49;;;;;;;;;6.00;5.33;;;;;22.94;35.68;101357.50;110453;1261;19142;-46
2022/05/17 04:43:16;;;;;;;;;4.00;3.00;;;;;22.95;35.69;101358.81;110517;1260;19605;-47
2022/05/17 04:45:44;;;;;;;;;7.67;6.33;;;;;22.96;35.72;101359.88;110493;1260;18455;-48
2022/05/17 04:48:11;;;;;;;;;6.00;6.00;;;;;22.96;35.46;101360.96;110489;1261;18660;-46
2022/05/17 04:50:38;;;;;;;;;7.00;6.00;;;;;22.95;35.32;101363.44;110455;1260;19529;-49
2022/05/17 04:53:06;;;;;;;;;6.00;6.00;;;;;22.93;35.32;101360.35;110505;1261;18423;-48
2022/05/17 04:55:33;;;;;;;;;6.67;6.00;;;;;22.91;35.34;101359.23;110544;1258;18809;-48
2022/05/17 04:58:00;;;;;;;;;5.33;5.00;;;;;22.92;35.49;101360.66;110671;1259;19513;-47
2022/05/17 05:00:28;;;;;;;;;6.00;5.50;;;;;22.95;35.33;101359.63;110509;1259;18497;-48
2022/05/17 05:02:55;;;;;;;;;7.00;6.33;;;;;22.96;35.35;101356.23;110607;1258;22992;-49
2022/05/17 05:05:23;;;;;;;;;6.00;6.00;;;;;22.97;35.41;101356.58;110779;1258;19432;-49
2022/05/17 05:07:50;;;;;;;;;7.00;7.00;;;;;23.02;35.64;101358.61;110516;1259;22089;-48
2022/05/17 05:10:18;;;;;;;;;6.00;6.00;;;;;23.06;36.21;101363.34;110520;1258;22685;-49
2022/05/17 05:12:45;;;;;;;;;4.33;4.33;;;;;23.12;36.41;101364.85;110617;1259;19634;-47
2022/05/17 05:15:12;;;;;;;;;6.00;6.00;;;;;23.15;36.45;101363.92;110432;1258;18438;-48
2022/05/17 05:17:39;;;;;;;;;6.00;6.00;;;;;23.17;36.50;101364.13;110714;1258;21530;-48
2022/05/17 05:20:07;;;;;;;;;7.00;6.33;;;;;23.23;36.39;101368.98;110517;1259;19511;-49
2022/05/17 05:22:34;;;;;;;;;7.00;6.00;;;;;23.26;36.37;101366.36;110529;1259;18799;-48
2022/05/17 05:25:01;;;;;;;;;6.50;6.00;;;;;23.33;36.41;101362.67;110504;1258;30654;-47
2022/05/17 05:27:28;;;;;;;;;6.00;6.00;;;;;23.36;36.28;101367.20;110654;1258;19820;-48
2022/05/17 05:29:56;;;;;;;;;5.00;5.00;;;;;23.35;36.15;101365.49;110462;1260;18486;-49
2022/05/17 05:32:23;;;;;;;;;8.00;7.00;;;;;23.36;35.99;101368.50;110442;1261;18849;-49
2022/05/17 05:34:51;;;;;;;;;6.00;5.00;;;;;23.30;35.95;101370.58;110419;1259;19333;-48
2022/05/17 05:37:18;;;;;;;;;7.00;6.67;;;;;23.27;35.86;101368.48;110527;1259;18413;-48
2022/05/17 05:39:45;;;;;;;;;6.33;6.00;;;;;23.26;35.76;101368.15;110507;1258;18727;-48
2022/05/17 05:42:12;;;;;;;;;6.00;6.00;;;;;23.33;35.96;101372.42;109982;1260;604541;-51
2022/05/17 05:44:40;;;;;;;;;6.00;6.00;;;;;23.40;36.11;101368.58;110703;1258;22406;-48
2022/05/17 05:47:07;;;;;;;;;7.67;6.33;;;;;23.41;36.18;101371.85;110587;1259;18588;-47
2022/05/17 05:49:34;;;;;;;;;6.00;6.00;;;;;23.42;36.30;101376.14;110475;1259;19462;-47
2022/05/17 05:52:01;;;;;;;;;6.00;6.00;;;;;23.46;36.22;101378.02;110512;1258;18809;-48
2022/05/17 05:54:29;;;;;;;;;10.33;10.00;;;;;23.45;36.08;101377.66;110501;1259;19051;-48
2022/05/17 05:56:56;;;;;;;;;6.00;6.00;;;;;23.43;35.92;101380.04;110576;1258;22319;-49
2022/05/17 05:59:23;;;;;;;;;8.33;6.67;;;;;23.43;35.76;101380.38;110768;1259;18727;-48
2022/05/17 06:01:51;;;;;;;;;5.33;5.00;;;;;23.39;35.68;101382.50;110640;1258;18678;-48
2022/05/17 06:04:18;;;;;;;;;5.00;5.00;;;;;23.30;35.55;101381.52;110606;1258;19508;-49
2022/05/17 06:06:45;;;;;;;;;6.33;6.00;;;;;23.28;35.56;101379.79;110473;1259;18418;-48
2022/05/17 06:09:12;;;;;;;;;6.50;6.00;;;;;23.25;35.42;101380.50;110393;1260;20971;-46
2022/05/17 06:11:40;;;;;;;;;7.67;7.00;;;;;23.15;34.62;101380.22;110420;1259;19619;-46
2022/05/17 06:14:07;;;;;;;;;8.00;8.00;;;;;22.54;32.09;101378.22;110360;1261;22058;-48
2022/05/17 06:16:34;;;;;;;;;6.00;6.00;;;;;22.17;31.51;101378.47;110380;1258;18729;-49
2022/05/17 06:19:01;;;;;;;;;7.00;6.00;;;;;22.04;30.80;101373.65;110430;1259;20940;-49
2022/05/17 06:21:28;;;;;;;;;5.33;5.00;;;;;22.12;30.50;101373.88;110380;1259;18484;-45
2022/05/17 06:23:56;;;;;;;;;6.00;6.00;;;;;21.68;29.52;101373.24;110463;1261;18750;-45
2022/05/17 06:26:23;;;;;;;;;7.00;7.00;;;;;21.64;29.31;101372.98;110456;1260;20892;-48
2022/05/17 06:28:50;;;;;;;;;5.00;5.00;;;;;21.36;28.79;101369.77;110493;1258;18874;-50
2022/05/17 06:31:17;;;;;;;;;6.00;5.33;;;;;21.10;28.86;101372.61;110516;1259;18713;-46
2022/05/17 06:33:45;;;;;;;;;5.00;5.00;;;;;21.33;28.28;101367.95;110417;1259;22778;-46
2022/05/17 06:36:12;;;;;;;;;3.00;3.00;;;;;21.43;28.14;101366.38;110432;1259;22319;-48
2022/05/17 06:38:39;;;;;;;;;5.00;4.00;;;;;21.58;27.70;101366.66;110532;1257;22785;-48
2022/05/17 06:41:07;;;;;;;;;5.00;3.00;;;;;21.82;27.45;101366.05;110519;1259;19796;-47
2022/05/17 06:43:35;;;;;;;;;4.00;4.00;;;;;21.75;27.27;101369.59;110446;1259;18315;-46
2022/05/17 06:46:02;;;;;;;;;5.00;5.00;;;;;22.03;27.71;101369.05;110386;1259;19007;-49
2022/05/17 06:48:29;;;;;;;;;5.00;5.00;;;;;22.35;28.13;101373.48;110534;1259;19515;-49
2022/05/17 06:50:56;;;;;;;;;3.00;3.00;;;;;22.57;28.45;101369.16;110452;1262;18897;-48
2022/05/17 06:53:24;;;;;;;;;3.00;3.00;;;;;22.75;28.63;101371.48;110566;1258;18700;-48
2022/05/17 06:55:51;;;;;;;;;3.00;3.00;;;;;22.86;28.83;101366.70;110521;1258;22011;-48
2022/05/17 06:58:19;;;;;;;;;5.00;3.67;;;;;22.95;28.89;101369.23;110554;1258;18370;-48
2022/05/17 07:00:46;;;;;;;;;3.00;3.00;;;;;23.00;29.34;101369.22;110537;1258;18917;-48
2022/05/17 07:03:14;;;;;;;;;3.00;3.00;;;;;23.06;29.45;101371.38;110404;1259;19456;-47
2022/05/17 07:05:41;;;;;;;;;5.00;3.00;;;;;23.14;29.80;101372.07;110397;1259;18892;-49
2022/05/17 07:08:09;;;;;;;;;3.00;3.00;;;;;23.20;29.98;101373.66;110694;1258;20022;-47
2022/05/17 07:13:21;;;;;;;;;5.33;5.00;;;;;23.21;30.32;101382.98;110389;1259;18460;-47
2022/05/17 07:15:48;;;;;;;;;3.67;3.00;;;;;23.20;30.38;101381.31;110227;1259;20101;-47
2022/05/17 07:18:17;;;;;;;;;3.00;3.00;;;;;23.18;30.28;101387.33;110287;1259;19544;-48
2022/05/17 07:20:44;;;;;;;;;3.67;3.67;;;;;23.16;30.27;101391.57;110459;1259;18897;-48
2022/05/17 07:23:12;;;;;;;;;5.67;5.00;;;;;23.15;30.26;101391.52;110580;1258;18912;-47
2022/05/17 07:25:40;;;;;;;;;2.67;2.67;;;;;23.15;30.28;101392.81;110562;1259;19597;-49
2022/05/17 07:28:08;;;;;;;;;3.00;3.00;;;;;23.15;30.22;101396.09;110525;1259;18808;-48
2022/05/17 07:30:35;;;;;;;;;5.00;3.00;;;;;23.15;30.48;101396.39;110525;1259;18994;-47
2022/05/17 07:33:02;;;;;;;;;5.00;5.00;;;;;23.09;30.18;101398.91;110476;1259;19530;-48
2022/05/17 07:35:29;;;;;;;;;3.00;3.00;;;;;22.89;29.97;101403.77;110508;1259;18804;-47
2022/05/17 07:37:56;;;;;;;;;3.00;3.00;;;;;22.53;29.08;101403.11;110445;1260;19197;-47
2022/05/17 07:40:24;;;;;;;;;3.00;3.00;;;;;22.16;28.75;101401.13;110385;1259;20157;-47
2022/05/17 07:42:52;;;;;;;;;5.00;3.00;;;;;22.13;28.48;101403.05;110418;1259;18430;-47
2022/05/17 07:45:19;;;;;;;;;3.00;3.00;;;;;22.17;28.48;101395.48;110580;1258;20867;-48
2022/05/17 07:47:47;;;;;;;;;3.00;3.00;;;;;21.96;27.84;101404.69;110268;1259;19396;-47
2022/05/17 07:50:14;;;;;;;;;3.00;3.00;;;;;21.82;27.83;101406.45;110340;1261;18481;-45
2022/05/17 07:52:42;;;;;;;;;4.00;3.00;;;;;21.71;27.19;101410.82;110395;1258;18753;-44
2022/05/17 07:55:10;;;;;;;;;3.00;3.00;;;;;21.44;26.97;101418.40;110411;1259;19761;-44
2022/05/17 07:57:37;;;;;;;;;4.00;4.00;;;;;21.27;26.59;101421.63;110350;1259;19104;-46
2022/05/17 08:00:05;;;;;;;;;2.00;2.00;;;;;21.32;26.32;101428.27;110680;1258;21983;-49
2022/05/17 08:02:32;;;;;;;;;2.67;2.67;;;;;20.80;26.25;101426.98;110517;1259;22730;-47
2022/05/17 08:05:00;;;;;;;;;2.00;2.00;;;;;21.02;26.29;101434.83;110455;1259;18589;-47
2022/05/17 08:07:27;;;;;;;;;2.67;2.67;;;;;21.26;25.94;101437.41;110568;1258;18998;-49
2022/05/17 08:09:54;;;;;;;;;2.00;2.00;;;;;21.04;25.93;101439.75;110600;1259;19455;-48
2022/05/17 08:12:21;;;;;;;;;2.67;2.67;;;;;21.27;25.70;101439.31;110441;1259;18428;-48
2022/05/17 08:14:49;;;;;;;;;4.00;4.00;;;;;21.07;25.64;101444.48;110448;1258;18616;-47
2022/05/17 08:17:16;;;;;;;;;2.00;2.00;;;;;20.66;26.17;101450.81;110554;1259;22232;-47
2022/05/17 08:19:44;;;;;;;;;4.33;4.00;;;;;20.41;26.53;101448.67;110498;1259;18752;-48
2022/05/17 08:22:11;;;;;;;;;3.00;3.00;;;;;20.91;26.70;101451.61;110520;1259;19036;-47
2022/05/17 08:27:38;;;;;;;;;4.00;4.00;;;;;21.51;27.07;101442.37;110447;1258;18396;-48
2022/05/17 08:30:05;;;;;;;;;4.00;4.00;;;;;21.68;26.77;101446.59;110431;1259;18953;-47
2022/05/17 08:35:17;;;;;;;;;5.00;5.00;;;;;21.75;26.97;101450.84;110506;1259;22032;-48
2022/05/17 08:37:44;;;;;;;;;5.00;5.00;;;;;21.82;27.21;101448.33;110394;1261;19897;-50
2022/05/17 08:40:11;;;;;;;;;2.67;2.67;;;;;21.77;27.29;101448.52;110435;1260;22084;-49
2022/05/17 08:42:39;;;;;;;;;4.00;2.67;;;;;21.67;27.27;101446.55;110508;1258;22816;-48
2022/05/17 08:45:06;;;;;;;;;4.33;4.33;;;;;21.81;27.57;101442.95;110438;1259;22805;-48
2022/05/17 08:47:33;;;;;;;;;4.67;4.67;;;;;21.91;27.62;101440.44;110530;1259;19575;-48
2022/05/17 08:50:00;;;;;;;;;5.00;5.00;;;;;21.92;28.13;101443.44;110585;1258;18619;-48
2022/05/17 08:52:28;;;;;;;;;6.00;6.00;;;;;22.06;28.39;101452.21;110528;1259;18788;-49
2022/05/17 08:54:55;;;;;;;;;10.00;9.50;;;;;22.07;29.26;101453.55;110463;1259;20312;-46
2022/05/17 08:57:22;;;;;;;;;7.00;6.67;;;;;22.02;29.85;101450.26;110449;1261;18382;-49
2022/05/17 08:59:50;;;;;;;;;10.33;10.00;;;;;21.96;30.52;101450.58;110480;1261;18702;-51
2022/05/17 09:02:17;;;;;;;;;6.00;6.00;;;;;21.99;30.74;101453.35;110517;1259;19446;-47
2022/05/17 09:04:45;;;;;;;;;6.00;5.00;;;;;21.85;30.59;101451.95;110503;1259;20962;-48
2022/05/17 09:07:12;;;;;;;;;7.00;7.00;;;;;21.85;30.22;101455.61;110506;1259;19017;-49
2022/05/17 09:09:39;;;;;;;;;9.00;7.00;;;;;21.97;30.41;101462.84;110530;1259;19708;-47
2022/05/17 09:12:07;;;;;;;;;7.67;7.67;;;;;22.09;30.31;101470.48;110463;1259;18602;-43
2022/05/17 09:14:34;;;;;;;;;9.33;9.00;;;;;22.18;30.86;101466.48;110554;1259;25078;-47
2022/05/17 09:17:01;;;;;;;;;6.33;6.00;;;;;22.17;30.19;101466.35;110546;1258;19504;-46
2022/05/17 09:19:28;;;;;;;;;6.00;5.33;;;;;21.99;30.40;101460.85;110418;1260;18402;-47
2022/05/17 09:21:59;;;;;;;;;3.00;3.00;;;;;21.95;29.55;101456.65;110392;1261;18893;-48
2022/05/17 09:24:26;;;;;;;;;5.00;5.00;;;;;21.96;29.32;101461.09;110433;1261;19487;-48
2022/05/17 09:26:54;;;;;;;;;2.33;2.00;;;;;21.88;28.86;101456.20;110459;1259;19340;-48
2022/05/17 09:29:21;;;;;;;;;5.67;3.33;;;;;21.86;28.37;101453.28;110556;1258;18989;-50
2022/05/17 09:31:49;;;;;;;;;4.00;4.00;;;;;21.86;28.22;101451.66;110530;1258;19916;-48
2022/05/17 09:34:16;;;;;;;;;4.67;4.00;;;;;21.76;28.10;101449.10;110502;1259;18644;-47
2022/05/17 09:36:43;;;;;;;;;4.00;4.00;;;;;21.67;28.19;101450.17;110032;1259;19018;-48
2022/05/17 09:39:11;;;;;;;;;3.33;3.33;;;;;21.27;28.06;101448.02;110475;1258;19587;-47
2022/05/17 09:41:38;;;;;;;;;5.67;5.00;;;;;21.31;27.96;101445.09;110510;1259;23394;-47
2022/05/17 09:44:06;;;;;;;;;5.00;4.00;;;;;21.64;28.00;101439.52;110594;1258;19305;-48
2022/05/17 09:46:33;;;;;;;;;4.00;4.00;;;;;21.38;27.56;101441.56;110552;1259;19613;-49
2022/05/17 09:54:31;;;;;;;;;5.00;4.00;;;;;20.85;27.26;101439.69;110447;1258;20855;-48
2022/05/17 09:56:59;;;;;;;;;5.33;4.67;;;;;20.95;27.39;101439.91;110477;1259;18976;-49
2022/05/17 09:59:26;;;;;;;;;5.00;4.00;;;;;21.37;27.41;101442.41;110543;1259;22919;-48
2022/05/17 10:01:53;;;;;;;;;4.00;4.00;;;;;21.63;27.05;101433.64;110477;1259;19457;-49
2022/05/17 10:04:20;;;;;;;;;4.33;4.33;;;;;21.81;26.80;101431.14;110565;1259;19111;-48
2022/05/17 10:06:48;;;;;;;;;6.67;5.33;;;;;21.93;26.94;101432.93;110476;1259;22614;-48
2022/05/17 10:09:15;;;;;;;;;4.00;4.00;;;;;22.09;27.08;101441.73;110486;1259;19792;-48
2022/05/17 10:11:44;;;;;;;;;3.00;2.00;;;;;22.19;26.97;101431.39;110433;1259;18436;-47
2022/05/17 10:14:11;;;;;;;;;2.00;2.00;;;;;22.20;26.96;101438.77;110478;1259;18722;-47
2022/05/17 10:16:38;;;;;;;;;8.50;5.00;;;;;21.85;26.77;101430.47;110418;1260;19705;-49
2022/05/17 10:19:06;;;;;;;;;4.00;4.00;;;;;21.83;26.86;101437.60;110532;1258;21025;-48
2022/05/17 10:21:33;;;;;;;;;4.00;4.00;;;;;21.93;26.95;101429.27;110529;1258;18750;-48
2022/05/17 10:24:00;;;;;;;;;3.00;2.67;;;;;22.09;26.88;101427.15;110487;1259;19651;-49
2022/05/17 10:26:28;;;;;;;;;5.00;3.00;;;;;22.19;26.92;101422.49;110566;1258;20169;-48
2022/05/17 10:28:55;;;;;;;;;3.00;3.00;;;;;22.20;26.57;101420.38;110324;1261;20271;-46
2022/05/17 10:31:22;;;;;;;;;3.00;3.00;;;;;22.23;26.61;101421.81;110438;1259;22463;-48
2022/05/17 10:33:49;;;;;;;;;3.00;3.00;;;;;22.28;26.77;101419.21;110446;1259;18433;-49
2022/05/17 10:36:17;;;;;;;;;3.00;3.00;;;;;22.29;26.62;101414.23;110431;1259;19456;-49
2022/05/17 10:38:44;;;;;;;;;3.00;2.33;;;;;22.12;26.31;101418.59;110433;1259;19707;-49
2022/05/17 10:41:12;;;;;;;;;2.00;2.00;;;;;21.78;25.97;101421.83;110540;1258;18582;-48
2022/05/17 10:43:39;;;;;;;;;2.00;2.00;;;;;21.70;26.08;101414.66;110494;1259;18617;-48
2022/05/17 10:46:09;;;;;;;;;2.67;2.67;;;;;21.98;26.86;101411.41;110491;1257;20039;-47
2022/05/17 10:48:38;;;;;;;;;3.00;2.67;;;;;22.18;27.06;101409.62;110643;1258;18733;-49
2022/05/17 10:51:06;;;;;;;;;3.00;3.00;;;;;21.97;26.41;101409.20;110460;1261;19025;-48
2022/05/17 10:53:33;;;;;;;;;2.00;2.00;;;;;21.97;26.69;101407.01;110484;1260;19500;-49
2022/05/17 10:56:01;;;;;;;;;2.00;2.00;;;;;22.06;26.27;101407.81;110290;1261;18514;-46
2022/05/17 10:58:28;;;;;;;;;2.33;2.33;;;;;22.09;26.09;101408.16;110437;1260;21003;-48
2022/05/17 11:00:57;;;;;;;;;2.00;2.00;;;;;22.15;26.30;101404.36;110465;1260;19519;-48
2022/05/17 11:03:24;;;;;;;;;3.00;2.00;;;;;22.21;26.69;101406.95;110480;1260;19274;-48
2022/05/17 11:05:53;;;;;;;;;3.00;3.00;;;;;22.35;26.66;101405.39;110446;1260;18812;-48
2022/05/17 11:08:20;;;;;;;;;2.67;2.67;;;;;22.41;26.65;101404.70;110512;1261;19552;-47
2022/05/17 11:10:47;;;;;;;;;3.00;3.00;;;;;22.36;26.63;101401.90;110410;1261;18480;-50
2022/05/17 11:13:14;;;;;;;;;2.00;2.00;;;;;22.43;26.74;101408.28;110363;1260;22396;-48
2022/05/17 11:15:42;;;;;;;;;2.00;2.00;;;;;22.47;26.50;101407.87;110380;1259;19624;-49
2022/05/17 11:18:09;;;;;;;;;2.00;2.00;;;;;22.42;26.33;101408.04;110426;1260;22748;-48
2022/05/17 11:20:37;;;;;;;;;3.00;3.00;;;;;22.16;25.83;101409.95;110514;1261;23307;-50
2022/05/17 11:23:04;;;;;;;;;2.00;2.00;;;;;22.07;25.92;101416.44;110455;1260;19926;-53
2022/05/17 11:25:33;;;;;;;;;2.00;2.00;;;;;22.18;26.29;101416.13;110452;1260;32358;-50
2022/05/17 11:28:01;;;;;;;;;2.00;2.00;;;;;22.32;26.68;101413.73;110357;1261;19386;-46
2022/05/17 11:30:28;;;;;;;;;2.00;2.00;;;;;22.42;26.87;101410.16;110447;1260;19677;-48
2022/05/17 11:32:55;;;;;;;;;2.00;2.00;;;;;22.53;27.19;101408.04;110462;1259;18514;-49